sensor_id;sensor_type;location;lat;lon;timestamp;pressure;altitude;pressure_sealevel;temperature;humidity
74427;BME280;62859;53.906;27.430;2023-04-01T00:01:16;991;;;7.8;74.3
74427;BME280;62859;53.906;27.430;2023-04-01T00:06:34;991;;;7.9;73.9
74427;BME280;62859;53.906;27.430;2023-04-01T00:11:18;991;;;7.9;73.8
74427;BME280;62859;53.906;27.430;2023-04-01T00:16:16;991;;;7.9;73.7
74427;BME280;62859;53.906;27.430;2023-04-01T00:21:34;991;;;8;73.3
74427;BME280;62859;53.906;27.430;2023-04-01T00:25:52;991;;;8;73.1
74427;BME280;62859;53.906;27.430;2023-04-01T00:31:34;990.9;;;8;72.7
74427;BME280;62859;53.906;27.430;2023-04-01T00:36:19;990.9;;;8;73
74427;BME280;62859;53.906;27.430;2023-04-01T00:40:58;990.9;;;8;73
74427;BME280;62859;53.906;27.430;2023-04-01T00:46:32;990.9;;;8.1;73
74427;BME280;62859;53.906;27.430;2023-04-01T00:51:11;990.8;;;8;72.7
74427;BME280;62859;53.906;27.430;2023-04-01T00:56:33;990.8;;;8;73
74427;BME280;62859;53.906;27.430;2023-04-01T01:01:16;990.7;;;8;73
74427;BME280;62859;53.906;27.430;2023-04-01T01:06:07;990.6;;;7.9;73.3
74427;BME280;62859;53.906;27.430;2023-04-01T01:11:34;990.7;;;8;73.2
74427;BME280;62859;53.906;27.430;2023-04-01T01:16:13;990.8;;;8;73
74427;BME280;62859;53.906;27.430;2023-04-01T01:21:37;990.7;;;7.9;73
74427;BME280;62859;53.906;27.430;2023-04-01T01:26:22;990.7;;;8;73.3
74427;BME280;62859;53.906;27.430;2023-04-01T01:31:17;990.7;;;8.1;73.2
74427;BME280;62859;53.906;27.430;2023-04-01T01:36:32;990.7;;;8.1;72.8
74427;BME280;62859;53.906;27.430;2023-04-01T01:41:24;990.7;;;8.1;72.6
74427;BME280;62859;53.906;27.430;2023-04-01T01:46:23;990.6;;;8;72.7
74427;BME280;62859;53.906;27.430;2023-04-01T01:51:18;990.7;;;8.1;72.4
74427;BME280;62859;53.906;27.430;2023-04-01T01:55:52;990.7;;;8;72.4
74427;BME280;62859;53.906;27.430;2023-04-01T02:01:33;990.7;;;8;72.4
74427;BME280;62859;53.906;27.430;2023-04-01T02:06:19;990.7;;;8.1;72.2
74427;BME280;62859;53.906;27.430;2023-04-01T02:11:24;990.7;;;8.2;72.3
74427;BME280;62859;53.906;27.430;2023-04-01T02:16:33;990.7;;;8.2;72.2
74427;BME280;62859;53.906;27.430;2023-04-01T02:20:52;990.7;;;8.2;71.9
74427;BME280;62859;53.906;27.430;2023-04-01T02:26:32;990.8;;;8.2;71.5
74427;BME280;62859;53.906;27.430;2023-04-01T02:31:10;990.8;;;8.2;71.9
74427;BME280;62859;53.906;27.430;2023-04-01T02:36:26;990.8;;;8.1;71.8
74427;BME280;62859;53.906;27.430;2023-04-01T02:41:35;990.7;;;8.1;72
74427;BME280;62859;53.906;27.430;2023-04-01T02:46:32;990.8;;;8.2;72
74427;BME280;62859;53.906;27.430;2023-04-01T02:51:32;990.7;;;8.2;71.7
74427;BME280;62859;53.906;27.430;2023-04-01T02:56:10;990.6;;;8.3;72.3
74427;BME280;62859;53.906;27.430;2023-04-01T03:01:22;990.5;;;8.2;71.9
74427;BME280;62859;53.906;27.430;2023-04-01T03:06:32;990.5;;;8.3;71.8
74427;BME280;62859;53.906;27.430;2023-04-01T03:10:52;990.5;;;8.3;71.4
74427;BME280;62859;53.906;27.430;2023-04-01T03:16:32;990.6;;;8.2;71.3
74427;BME280;62859;53.906;27.430;2023-04-01T03:20:52;990.5;;;8.2;71.1
74427;BME280;62859;53.906;27.430;2023-04-01T03:26:22;990.6;;;8.2;71.1
74427;BME280;62859;53.906;27.430;2023-04-01T03:31:32;990.6;;;8.2;71
74427;BME280;62859;53.906;27.430;2023-04-01T03:36:10;990.6;;;8.3;70.8
74427;BME280;62859;53.906;27.430;2023-04-01T03:41:34;990.6;;;8.3;71
74427;BME280;62859;53.906;27.430;2023-04-01T03:46:10;990.6;;;8.4;71.1
74427;BME280;62859;53.906;27.430;2023-04-01T03:51:22;990.8;;;8.4;71.2
74427;BME280;62859;53.906;27.430;2023-04-01T03:56:32;990.9;;;8.4;71.3
74427;BME280;62859;53.906;27.430;2023-04-01T04:00:52;990.9;;;8.4;71.1
74427;BME280;62859;53.906;27.430;2023-04-01T04:06:32;990.9;;;8.4;71
74427;BME280;62859;53.906;27.430;2023-04-01T04:11:00;990.9;;;8.4;70.9
74427;BME280;62859;53.906;27.430;2023-04-01T04:16:22;990.8;;;8.4;70.9
74427;BME280;62859;53.906;27.430;2023-04-01T04:21:32;990.9;;;8.4;70.7
74427;BME280;62859;53.906;27.430;2023-04-01T04:25:53;990.9;;;8.4;70.5
74427;BME280;62859;53.906;27.430;2023-04-01T04:31:32;990.9;;;8.4;71
74427;BME280;62859;53.906;27.430;2023-04-01T04:36:03;991;;;8.4;70.6
74427;BME280;62859;53.906;27.430;2023-04-01T04:41:20;991;;;8.3;70.6
74427;BME280;62859;53.906;27.430;2023-04-01T04:46:32;990.9;;;8.3;70.5
74427;BME280;62859;53.906;27.430;2023-04-01T04:50:52;990.9;;;8.2;70.5
74427;BME280;62859;53.906;27.430;2023-04-01T04:56:32;990.9;;;8.2;70.7
74427;BME280;62859;53.906;27.430;2023-04-01T05:01:06;990.9;;;8.1;70.6
74427;BME280;62859;53.906;27.430;2023-04-01T05:06:22;990.8;;;8.1;70.8
74427;BME280;62859;53.906;27.430;2023-04-01T05:11:32;990.8;;;8.1;70.6
74427;BME280;62859;53.906;27.430;2023-04-01T05:16:02;990.8;;;8.3;71.1
74427;BME280;62859;53.906;27.430;2023-04-01T05:21:32;990.8;;;8.3;70.5
74427;BME280;62859;53.906;27.430;2023-04-01T05:26:32;990.9;;;8.3;70.4
74427;BME280;62859;53.906;27.430;2023-04-01T05:31:22;991;;;8.3;70.4
74427;BME280;62859;53.906;27.430;2023-04-01T05:36:18;990.9;;;8.2;70.4
74427;BME280;62859;53.906;27.430;2023-04-01T05:40:58;990.8;;;8.2;70.5
74427;BME280;62859;53.906;27.430;2023-04-01T05:45:58;990.8;;;8.3;70.5
74427;BME280;62859;53.906;27.430;2023-04-01T05:51:24;990.8;;;8.4;70.3
74427;BME280;62859;53.906;27.430;2023-04-01T05:56:30;990.8;;;8.4;70.1
74427;BME280;62859;53.906;27.430;2023-04-01T06:01:24;990.9;;;8.5;70.6
74427;BME280;62859;53.906;27.430;2023-04-01T06:05:52;990.9;;;8.6;70.3
74427;BME280;62859;53.906;27.430;2023-04-01T06:11:13;990.9;;;8.8;69.8
74427;BME280;62859;53.906;27.430;2023-04-01T06:16:26;990.9;;;8.9;69.8
74427;BME280;62859;53.906;27.430;2023-04-01T06:21:37;991;;;8.9;69.6
74427;BME280;62859;53.906;27.430;2023-04-01T06:26:25;991;;;8.9;69.5
74427;BME280;62859;53.906;27.430;2023-04-01T06:30:53;991.1;;;8.9;69.6
74427;BME280;62859;53.906;27.430;2023-04-01T06:36:13;991.1;;;8.9;69.6
74427;BME280;62859;53.906;27.430;2023-04-01T06:41:36;991.1;;;8.9;69.7
74427;BME280;62859;53.906;27.430;2023-04-01T06:46:26;991.1;;;9;70.2
74427;BME280;62859;53.906;27.430;2023-04-01T06:51:24;991.1;;;9.1;70.1
74427;BME280;62859;53.906;27.430;2023-04-01T06:55:53;991.1;;;9.1;69.9
74427;BME280;62859;53.906;27.430;2023-04-01T07:00:53;991.2;;;9.1;69.9
74427;BME280;62859;53.906;27.430;2023-04-01T07:06:25;991.3;;;9.2;69.8
74427;BME280;62859;53.906;27.430;2023-04-01T07:11:34;991.3;;;9.2;69.9
74427;BME280;62859;53.906;27.430;2023-04-01T07:16:25;991.3;;;9.2;69.9
74427;BME280;62859;53.906;27.430;2023-04-01T07:21:28;991.3;;;9.1;69.9
74427;BME280;62859;53.906;27.430;2023-04-01T07:25:53;991.2;;;9.1;69.9
74427;BME280;62859;53.906;27.430;2023-04-01T07:31:19;991.2;;;9.2;70.2
74427;BME280;62859;53.906;27.430;2023-04-01T07:36:29;991.3;;;9.3;70.5
74427;BME280;62859;53.906;27.430;2023-04-01T07:41:27;991.5;;;9.3;70
74427;BME280;62859;53.906;27.430;2023-04-01T07:45:54;991.6;;;9.3;69.9
74427;BME280;62859;53.906;27.430;2023-04-01T07:50:54;991.5;;;9.3;69.8
74427;BME280;62859;53.906;27.430;2023-04-01T07:56:25;991.5;;;9.2;69.8
74427;BME280;62859;53.906;27.430;2023-04-01T08:01:33;991.5;;;9.2;69.9
74427;BME280;62859;53.906;27.430;2023-04-01T08:06:25;991.6;;;9.2;69.9
74427;BME280;62859;53.906;27.430;2023-04-01T08:10:54;991.5;;;9.1;70.3
74427;BME280;62859;53.906;27.430;2023-04-01T08:15:53;991.5;;;9.1;70.6
74427;BME280;62859;53.906;27.430;2023-04-01T08:21:25;991.5;;;9.1;71.2
74427;BME280;62859;53.906;27.430;2023-04-01T08:26:34;991.5;;;9.1;71.2
74427;BME280;62859;53.906;27.430;2023-04-01T08:30:53;991.5;;;9.1;71.2
74427;BME280;62859;53.906;27.430;2023-04-01T08:36:10;991.5;;;9.2;71.2
74427;BME280;62859;53.906;27.430;2023-04-01T08:41:15;991.4;;;9.2;71.3
74427;BME280;62859;53.906;27.430;2023-04-01T08:46:28;991.4;;;9.3;71.2
74427;BME280;62859;53.906;27.430;2023-04-01T08:51:54;991.3;;;9.3;71.3
74427;BME280;62859;53.906;27.430;2023-04-01T08:56:23;991.3;;;9.4;71.4
74427;BME280;62859;53.906;27.430;2023-04-01T09:01:10;991.3;;;9.5;71.2
74427;BME280;62859;53.906;27.430;2023-04-01T09:06:12;991.3;;;9.5;71.5
74427;BME280;62859;53.906;27.430;2023-04-01T09:11:31;991.2;;;9.6;71.7
74427;BME280;62859;53.906;27.430;2023-04-01T09:16:50;991.3;;;9.5;71.6
74427;BME280;62859;53.906;27.430;2023-04-01T09:21:31;991.3;;;9.4;71.5
74427;BME280;62859;53.906;27.430;2023-04-01T09:26:07;991.4;;;9.5;71.6
74427;BME280;62859;53.906;27.430;2023-04-01T09:30:59;991.4;;;9.4;71.6
74427;BME280;62859;53.906;27.430;2023-04-01T09:36:32;991.4;;;9.4;71.6
74427;BME280;62859;53.906;27.430;2023-04-01T09:41:35;991.5;;;9.4;71.6
74427;BME280;62859;53.906;27.430;2023-04-01T09:46:29;991.5;;;9.4;71.9
74427;BME280;62859;53.906;27.430;2023-04-01T09:50:57;991.5;;;9.4;71.7
74427;BME280;62859;53.906;27.430;2023-04-01T09:56:19;991.5;;;9.5;71.6
74427;BME280;62859;53.906;27.430;2023-04-01T10:06:36;991.6;;;9.5;70.4
74427;BME280;62859;53.906;27.430;2023-04-01T10:12:04;991.7;;;9.4;70.6
74427;BME280;62859;53.906;27.430;2023-04-01T10:16:16;991.7;;;9.5;70.6
74427;BME280;62859;53.906;27.430;2023-04-01T10:20:58;991.7;;;9.5;70.5
74427;BME280;62859;53.906;27.430;2023-04-01T10:26:03;991.8;;;9.5;70.5
74427;BME280;62859;53.906;27.430;2023-04-01T10:31:41;991.8;;;9.6;70.6
74427;BME280;62859;53.906;27.430;2023-04-01T10:36:06;991.8;;;9.5;71.2
74427;BME280;62859;53.906;27.430;2023-04-01T10:41:09;991.8;;;9.4;71
74427;BME280;62859;53.906;27.430;2023-04-01T10:46:28;991.8;;;9.4;71.3
74427;BME280;62859;53.906;27.430;2023-04-01T10:51:21;991.8;;;9.3;71.7
74427;BME280;62859;53.906;27.430;2023-04-01T10:56:34;991.8;;;9.2;72
74427;BME280;62859;53.906;27.430;2023-04-01T11:01:27;991.8;;;9.2;72.3
74427;BME280;62859;53.906;27.430;2023-04-01T11:06:14;991.8;;;9.2;72.5
74427;BME280;62859;53.906;27.430;2023-04-01T11:11:35;991.8;;;9.3;72.5
74427;BME280;62859;53.906;27.430;2023-04-01T11:16:22;991.9;;;9.3;72.6
74427;BME280;62859;53.906;27.430;2023-04-01T11:21:41;991.9;;;9.4;72.7
74427;BME280;62859;53.906;27.430;2023-04-01T11:26:28;991.9;;;9.3;72.4
74427;BME280;62859;53.906;27.430;2023-04-01T11:31:04;991.9;;;9.4;72.5
74427;BME280;62859;53.906;27.430;2023-04-01T11:36:04;991.9;;;9.5;72.5
74427;BME280;62859;53.906;27.430;2023-04-01T11:40:56;992;;;9.5;72.4
74427;BME280;62859;53.906;27.430;2023-04-01T11:46:33;992;;;9.5;72.5
74427;BME280;62859;53.906;27.430;2023-04-01T11:51:29;992;;;9.4;72.8
74427;BME280;62859;53.906;27.430;2023-04-01T11:56:01;991.9;;;9.3;73.2
74427;BME280;62859;53.906;27.430;2023-04-01T12:01:14;991.9;;;9.4;73.7
74427;BME280;62859;53.906;27.430;2023-04-01T12:06:23;991.9;;;9.4;74.1
74427;BME280;62859;53.906;27.430;2023-04-01T12:11:34;991.9;;;9.4;73.9
74427;BME280;62859;53.906;27.430;2023-04-01T12:16:29;991.9;;;9.4;74
74427;BME280;62859;53.906;27.430;2023-04-01T12:21:05;992;;;9.4;74.4
74427;BME280;62859;53.906;27.430;2023-04-01T12:26:19;992;;;9.4;74.5
74427;BME280;62859;53.906;27.430;2023-04-01T12:31:03;992.1;;;9.4;74.7
74427;BME280;62859;53.906;27.430;2023-04-01T12:36:35;992.1;;;9.4;74.7
74427;BME280;62859;53.906;27.430;2023-04-01T12:41:26;992.1;;;9.5;74.7
74427;BME280;62859;53.906;27.430;2023-04-01T12:45:55;992.1;;;9.6;75
74427;BME280;62859;53.906;27.430;2023-04-01T12:51:17;992.1;;;9.7;74.9
74427;BME280;62859;53.906;27.430;2023-04-01T12:55:55;992.2;;;9.8;74.8
74427;BME280;62859;53.906;27.430;2023-04-01T13:01:40;992.2;;;9.8;74.6
74427;BME280;62859;53.906;27.430;2023-04-01T13:06:29;992.2;;;9.9;74.5
74427;BME280;62859;53.906;27.430;2023-04-01T13:11:08;992.2;;;10;74.5
74427;BME280;62859;53.906;27.430;2023-04-01T13:16:11;992.3;;;9.9;74.5
74427;BME280;62859;53.906;27.430;2023-04-01T13:20:57;992.3;;;10;74.6
74427;BME280;62859;53.906;27.430;2023-04-01T13:26:36;992.3;;;9.9;74.4
74427;BME280;62859;53.906;27.430;2023-04-01T13:31:29;992.3;;;10;75
74427;BME280;62859;53.906;27.430;2023-04-01T13:35:57;992.4;;;10;74.7
74427;BME280;62859;53.906;27.430;2023-04-01T13:41:13;992.4;;;10;74.9
74427;BME280;62859;53.906;27.430;2023-04-01T13:46:11;992.5;;;10;74.7
74427;BME280;62859;53.906;27.430;2023-04-01T13:52:08;992.5;;;10;74.6
74427;BME280;62859;53.906;27.430;2023-04-01T13:56:29;992.5;;;10;74.9
74427;BME280;62859;53.906;27.430;2023-04-01T14:00:55;992.5;;;9.9;75.1
74427;BME280;62859;53.906;27.430;2023-04-01T14:06:17;992.5;;;9.9;75.5
74427;BME280;62859;53.906;27.430;2023-04-01T14:11:09;992.5;;;10;75.6
74427;BME280;62859;53.906;27.430;2023-04-01T14:16:31;992.6;;;10;75.8
74427;BME280;62859;53.906;27.430;2023-04-01T14:21:36;992.6;;;10;75.6
74427;BME280;62859;53.906;27.430;2023-04-01T14:26:30;992.6;;;10;75.6
74427;BME280;62859;53.906;27.430;2023-04-01T14:31:18;992.6;;;10.1;75.4
74427;BME280;62859;53.906;27.430;2023-04-01T14:35:58;992.6;;;10.1;74.9
74427;BME280;62859;53.906;27.430;2023-04-01T14:41:40;992.7;;;10.1;74.8
74427;BME280;62859;53.906;27.430;2023-04-01T14:46:43;992.7;;;10.2;74.7
74427;BME280;62859;53.906;27.430;2023-04-01T14:51:28;992.7;;;10.2;74.4
74427;BME280;62859;53.906;27.430;2023-04-01T14:56:05;992.7;;;10.2;74.4
74427;BME280;62859;53.906;27.430;2023-04-01T15:01:07;992.6;;;10.2;74.3
74427;BME280;62859;53.906;27.430;2023-04-01T15:06:15;992.7;;;10.3;74.9
74427;BME280;62859;53.906;27.430;2023-04-01T15:11:41;992.7;;;10.3;74.5
74427;BME280;62859;53.906;27.430;2023-04-01T15:16:27;992.7;;;10.4;74.4
74427;BME280;62859;53.906;27.430;2023-04-01T15:21:27;992.7;;;10.3;74.3
74427;BME280;62859;53.906;27.430;2023-04-01T15:26:19;992.8;;;10.3;74.2
74427;BME280;62859;53.906;27.430;2023-04-01T15:31:24;992.8;;;10.3;74.3
74427;BME280;62859;53.906;27.430;2023-04-01T15:36:35;992.8;;;10.3;74.5
74427;BME280;62859;53.906;27.430;2023-04-01T15:41:02;992.8;;;10.2;74.7
74427;BME280;62859;53.906;27.430;2023-04-01T15:46:14;992.9;;;10.2;74.9
74427;BME280;62859;53.906;27.430;2023-04-01T15:51:11;992.9;;;10.2;75.3
74427;BME280;62859;53.906;27.430;2023-04-01T15:56:30;992.9;;;10.3;75.2
74427;BME280;62859;53.906;27.430;2023-04-01T16:01:24;992.9;;;10.3;75
74427;BME280;62859;53.906;27.430;2023-04-01T16:06:32;992.9;;;10.3;75.3
74427;BME280;62859;53.906;27.430;2023-04-01T16:11:14;993;;;10.2;75.3
74427;BME280;62859;53.906;27.430;2023-04-01T16:15:57;993;;;10.2;75.5
74427;BME280;62859;53.906;27.430;2023-04-01T16:21:21;993;;;10.2;75.6
74427;BME280;62859;53.906;27.430;2023-04-01T16:26:36;993;;;10.2;75.5
74427;BME280;62859;53.906;27.430;2023-04-01T16:31:29;993.1;;;10.2;75.6
74427;BME280;62859;53.906;27.430;2023-04-01T16:36:13;993.1;;;10.3;75.8
74427;BME280;62859;53.906;27.430;2023-04-01T16:41:19;993.2;;;10.3;76
74427;BME280;62859;53.906;27.430;2023-04-01T16:46:28;993.2;;;10.2;75.8
74427;BME280;62859;53.906;27.430;2023-04-01T16:51:37;993.2;;;10.2;76
74427;BME280;62859;53.906;27.430;2023-04-01T16:56:16;993.3;;;10.2;75.7
74427;BME280;62859;53.906;27.430;2023-04-01T17:01:01;993.3;;;10.3;75.5
74427;BME280;62859;53.906;27.430;2023-04-01T17:06:02;993.3;;;10.3;75.3
74427;BME280;62859;53.906;27.430;2023-04-01T17:11:31;993.3;;;10.4;74.9
74427;BME280;62859;53.906;27.430;2023-04-01T17:16:42;993.3;;;10.4;75.1
74427;BME280;62859;53.906;27.430;2023-04-01T17:21:29;993.4;;;10.4;75.1
74427;BME280;62859;53.906;27.430;2023-04-01T17:25:59;993.4;;;10.4;75.3
74427;BME280;62859;53.906;27.430;2023-04-01T17:31:21;993.4;;;10.3;74.9
74427;BME280;62859;53.906;27.430;2023-04-01T17:36:20;993.5;;;10.3;75.1
74427;BME280;62859;53.906;27.430;2023-04-01T17:41:29;993.5;;;10.2;75.3
74427;BME280;62859;53.906;27.430;2023-04-01T17:46:22;993.5;;;10.2;75.3
74427;BME280;62859;53.906;27.430;2023-04-01T17:51:33;993.5;;;10.2;75.5
74427;BME280;62859;53.906;27.430;2023-04-01T17:56:17;993.5;;;10.1;75.6
74427;BME280;62859;53.906;27.430;2023-04-01T18:00:59;993.6;;;10.1;75.9
74427;BME280;62859;53.906;27.430;2023-04-01T18:06:29;993.6;;;10.1;75.9
74427;BME280;62859;53.906;27.430;2023-04-01T18:11:28;993.6;;;10.1;76.1
74427;BME280;62859;53.906;27.430;2023-04-01T18:16:24;993.7;;;10.1;76
74427;BME280;62859;53.906;27.430;2023-04-01T18:21:13;993.6;;;10.1;75.8
74427;BME280;62859;53.906;27.430;2023-04-01T18:26:12;993.7;;;10;75.9
74427;BME280;62859;53.906;27.430;2023-04-01T18:31:34;993.7;;;10.1;75.7
74427;BME280;62859;53.906;27.430;2023-04-01T18:36:26;993.7;;;10.1;75.5
74427;BME280;62859;53.906;27.430;2023-04-01T18:41:12;993.7;;;10.1;75.3
74427;BME280;62859;53.906;27.430;2023-04-01T18:46:22;993.7;;;10.1;75.4
74427;BME280;62859;53.906;27.430;2023-04-01T18:51:11;993.7;;;10.2;75.6
74427;BME280;62859;53.906;27.430;2023-04-01T18:56:35;993.7;;;10.2;75.3
74427;BME280;62859;53.906;27.430;2023-04-01T19:01:27;993.7;;;10.2;75.3
74427;BME280;62859;53.906;27.430;2023-04-01T19:05:55;993.8;;;10.2;75.3
74427;BME280;62859;53.906;27.430;2023-04-01T19:11:04;993.8;;;10.1;75.3
74427;BME280;62859;53.906;27.430;2023-04-01T19:15:57;993.8;;;10.1;75.5
74427;BME280;62859;53.906;27.430;2023-04-01T19:21:35;993.8;;;10;75.7
74427;BME280;62859;53.906;27.430;2023-04-01T19:26:28;993.9;;;10;75.8
74427;BME280;62859;53.906;27.430;2023-04-01T19:31:28;993.9;;;10.1;75.7
74427;BME280;62859;53.906;27.430;2023-04-01T19:36:11;993.9;;;10.1;76.3
74427;BME280;62859;53.906;27.430;2023-04-01T19:41:02;994;;;10.1;75.8
74427;BME280;62859;53.906;27.430;2023-04-01T19:46:28;994;;;10.1;75.8
74427;BME280;62859;53.906;27.430;2023-04-01T19:51:19;994;;;10.1;75.9
74427;BME280;62859;53.906;27.430;2023-04-01T19:56:12;994;;;10;75.8
74427;BME280;62859;53.906;27.430;2023-04-01T20:01:03;994;;;10;76.1
74427;BME280;62859;53.906;27.430;2023-04-01T20:06:04;994.1;;;10;76
74427;BME280;62859;53.906;27.430;2023-04-01T20:11:37;994.1;;;10;76
74427;BME280;62859;53.906;27.430;2023-04-01T20:16:23;994.1;;;10.1;75.9
74427;BME280;62859;53.906;27.430;2023-04-01T20:20:55;994.1;;;10.1;76.4
74427;BME280;62859;53.906;27.430;2023-04-01T20:25:55;994.1;;;10.1;75.9
74427;BME280;62859;53.906;27.430;2023-04-01T20:31:12;994.2;;;10.1;75.6
74427;BME280;62859;53.906;27.430;2023-04-01T20:36:34;994.2;;;10.2;75.6
74427;BME280;62859;53.906;27.430;2023-04-01T20:41:25;994.3;;;10.2;75.3
74427;BME280;62859;53.906;27.430;2023-04-01T20:46:19;994.3;;;10.2;75
74427;BME280;62859;53.906;27.430;2023-04-01T20:51:09;994.3;;;10.2;74.9
74427;BME280;62859;53.906;27.430;2023-04-01T20:56:17;994.4;;;10.2;74.9
74427;BME280;62859;53.906;27.430;2023-04-01T21:01:35;994.4;;;10.1;75
74427;BME280;62859;53.906;27.430;2023-04-01T21:06:15;994.4;;;10.1;75.4
74427;BME280;62859;53.906;27.430;2023-04-01T21:11:13;994.4;;;10.1;75.6
74427;BME280;62859;53.906;27.430;2023-04-01T21:16:08;994.5;;;10.1;75.2
74427;BME280;62859;53.906;27.430;2023-04-01T21:21:17;994.5;;;10.1;75.3
74427;BME280;62859;53.906;27.430;2023-04-01T21:26:38;994.5;;;10.1;75.1
74427;BME280;62859;53.906;27.430;2023-04-01T21:31:27;994.5;;;10.1;75
74427;BME280;62859;53.906;27.430;2023-04-01T21:36:14;994.5;;;10.1;75
74427;BME280;62859;53.906;27.430;2023-04-01T21:41:14;994.6;;;10.2;74.8
74427;BME280;62859;53.906;27.430;2023-04-01T21:46:17;994.6;;;10.2;74.6
74427;BME280;62859;53.906;27.430;2023-04-01T21:51:39;994.6;;;10.2;74.6
74427;BME280;62859;53.906;27.430;2023-04-01T21:56:30;994.6;;;10.2;75.2
74427;BME280;62859;53.906;27.430;2023-04-01T22:01:21;994.6;;;10.2;74.9
74427;BME280;62859;53.906;27.430;2023-04-01T22:05:56;994.6;;;10.2;74.6
74427;BME280;62859;53.906;27.430;2023-04-01T22:10:56;994.6;;;10.2;74.5
74427;BME280;62859;53.906;27.430;2023-04-01T22:16:35;994.6;;;10.2;74.6
74427;BME280;62859;53.906;27.430;2023-04-01T22:21:26;994.7;;;10.2;74.7
74427;BME280;62859;53.906;27.430;2023-04-01T22:26:13;994.7;;;10.1;74.8
74427;BME280;62859;53.906;27.430;2023-04-01T22:30:55;994.7;;;10.1;74.8
74427;BME280;62859;53.906;27.430;2023-04-01T22:36:35;994.7;;;10.2;74.7
74427;BME280;62859;53.906;27.430;2023-04-01T22:41:24;994.7;;;10.2;74.8
74427;BME280;62859;53.906;27.430;2023-04-01T22:45:59;994.7;;;10.3;75
74427;BME280;62859;53.906;27.430;2023-04-01T22:51:20;994.7;;;10.3;74.5
74427;BME280;62859;53.906;27.430;2023-04-01T22:56:14;994.8;;;10.3;74.6
74427;BME280;62859;53.906;27.430;2023-04-01T23:01:34;994.8;;;10.2;74.5
74427;BME280;62859;53.906;27.430;2023-04-01T23:06:20;994.8;;;10.2;74.6
74427;BME280;62859;53.906;27.430;2023-04-01T23:11:07;994.8;;;10.2;74.8
74427;BME280;62859;53.906;27.430;2023-04-01T23:16:17;994.8;;;10.2;74.6
74427;BME280;62859;53.906;27.430;2023-04-01T23:21:11;994.9;;;10.2;74.6
74427;BME280;62859;53.906;27.430;2023-04-01T23:26:32;994.9;;;10.2;74.5
74427;BME280;62859;53.906;27.430;2023-04-01T23:31:40;994.9;;;10.3;75.1
74427;BME280;62859;53.906;27.430;2023-04-01T23:36:15;994.8;;;10.3;74.6
74427;BME280;62859;53.906;27.430;2023-04-01T23:41:17;994.8;;;10.3;74.4
74427;BME280;62859;53.906;27.430;2023-04-01T23:46:03;994.8;;;10.3;74.6
74427;BME280;62859;53.906;27.430;2023-04-01T23:51:35;994.9;;;10.2;74.5
74427;BME280;62859;53.906;27.430;2023-04-01T23:56:01;994.9;;;10.2;74.6
